createdAt,value
2018-07-20T00:00:13.779Z,20.59
2018-07-20T00:02:18.545Z,20.69
2018-07-20T00:04:23.191Z,20.65
2018-07-20T00:06:27.530Z,20.57
2018-07-20T00:08:32.347Z,20.52
2018-07-20T00:10:37.161Z,20.48
2018-07-20T00:12:41.456Z,20.54
2018-07-20T00:14:46.180Z,20.46
2018-07-20T00:16:50.854Z,20.44
2018-07-20T00:18:55.430Z,20.44
2018-07-20T00:20:59.716Z,20.37
2018-07-20T00:23:04.367Z,20.36
2018-07-20T00:25:08.981Z,20.35
2018-07-20T00:27:13.685Z,20.29
2018-07-20T00:29:18.609Z,20.23
2018-07-20T00:31:23.295Z,20.13
2018-07-20T00:33:27.929Z,20.25
2018-07-20T00:35:32.593Z,20.24
2018-07-20T00:37:37.274Z,20.21
2018-07-20T00:39:41.911Z,20.31
2018-07-20T00:41:46.607Z,20.30
2018-07-20T00:43:50.952Z,20.22
2018-07-20T00:45:55.617Z,20.22
2018-07-20T00:48:00.490Z,20.17
2018-07-20T00:50:05.442Z,20.18
2018-07-20T00:52:10.830Z,20.15
2018-07-20T00:54:15.474Z,20.08
2018-07-20T00:56:20.132Z,20.00
2018-07-20T00:58:24.854Z,19.97
2018-07-20T01:00:29.541Z,20.25
2018-07-20T01:02:34.331Z,20.04
2018-07-20T01:04:39.065Z,19.96
2018-07-20T01:06:43.719Z,19.98
2018-07-20T01:08:48.776Z,19.86
2018-07-20T01:10:53.448Z,19.51
2018-07-20T01:12:58.611Z,19.85
2018-07-20T01:15:03.273Z,19.87
2018-07-20T01:17:07.925Z,19.81
2018-07-20T01:19:12.602Z,19.80
2018-07-20T01:21:17.256Z,19.74
2018-07-20T01:23:22.047Z,19.63
2018-07-20T01:25:26.668Z,19.68
2018-07-20T01:27:31.415Z,19.74
2018-07-20T01:29:36.139Z,19.77
2018-07-20T01:31:40.822Z,19.73
2018-07-20T01:33:45.632Z,19.76
2018-07-20T01:35:50.297Z,19.68
2018-07-20T01:37:55.101Z,19.65
2018-07-20T01:39:59.833Z,19.59
2018-07-20T01:42:04.555Z,19.51
2018-07-20T01:44:09.722Z,19.57
2018-07-20T01:46:14.495Z,19.55
2018-07-20T01:48:18.931Z,19.52
2018-07-20T01:50:23.629Z,19.51
2018-07-20T01:52:28.277Z,19.49
2018-07-20T01:54:32.945Z,19.46
2018-07-20T01:56:37.734Z,19.45
2018-07-20T01:58:42.434Z,19.44
2018-07-20T02:00:46.763Z,19.39
2018-07-20T02:02:51.398Z,19.41
2018-07-20T02:04:56.047Z,19.41
2018-07-20T02:07:00.674Z,19.39
2018-07-20T02:09:08.344Z,19.40
2018-07-20T02:11:12.997Z,19.32
2018-07-20T02:13:17.675Z,19.28
2018-07-20T02:15:22.278Z,19.22
2018-07-20T02:17:26.560Z,19.13
2018-07-20T02:19:31.268Z,19.16
2018-07-20T02:21:35.967Z,19.13
2018-07-20T02:23:40.673Z,19.08
2018-07-20T02:25:45.491Z,19.00
2018-07-20T02:27:49.871Z,18.94
2018-07-20T02:29:54.606Z,18.98
2018-07-20T02:31:59.259Z,18.96
2018-07-20T02:34:04.027Z,18.98
2018-07-20T02:36:08.673Z,18.98
2018-07-20T02:38:13.367Z,18.98
2018-07-20T02:40:18.029Z,18.94
2018-07-20T02:42:22.723Z,18.89
2018-07-20T02:44:27.393Z,18.89
2018-07-20T02:46:31.720Z,18.87
2018-07-20T02:48:36.392Z,18.89
2018-07-20T02:52:42.863Z,18.83
2018-07-20T02:54:47.571Z,18.82
2018-07-20T02:56:52.212Z,18.83
2018-07-20T02:58:56.874Z,18.81
2018-07-20T03:01:01.544Z,18.81
2018-07-20T03:03:06.192Z,18.78
2018-07-20T03:05:10.839Z,18.77
2018-07-20T03:07:15.499Z,18.77
2018-07-20T03:09:20.335Z,18.78
2018-07-20T03:11:24.982Z,18.79
2018-07-20T03:13:29.611Z,18.76
2018-07-20T03:15:34.202Z,18.74
2018-07-20T03:17:38.893Z,18.71
2018-07-20T03:19:43.357Z,18.64
2018-07-20T03:21:48.202Z,18.60
2018-07-20T03:23:52.859Z,18.68
2018-07-20T03:25:57.537Z,18.69
2018-07-20T03:28:02.222Z,18.62
2018-07-20T03:30:07.168Z,18.67
2018-07-20T03:32:12.246Z,18.72
2018-07-20T03:34:17.018Z,18.67
2018-07-20T03:36:21.710Z,18.71
2018-07-20T03:38:26.368Z,18.72
2018-07-20T03:40:31.022Z,18.71
2018-07-20T03:42:35.684Z,18.73
2018-07-20T03:44:40.352Z,18.74
2018-07-20T03:46:44.982Z,18.71
2018-07-20T03:48:50.361Z,18.73
2018-07-20T03:50:54.693Z,18.72
2018-07-20T03:52:59.017Z,18.69
2018-07-20T03:55:03.719Z,18.70
2018-07-20T03:57:08.041Z,18.68
2018-07-20T03:59:12.467Z,18.62
2018-07-20T04:01:17.139Z,18.71
2018-07-20T04:03:21.752Z,18.69
2018-07-20T04:05:26.413Z,18.67
2018-07-20T04:07:31.086Z,18.69
2018-07-20T04:09:35.748Z,18.69
2018-07-20T04:11:40.851Z,18.74
2018-07-20T04:13:45.677Z,18.76
2018-07-20T04:15:50.352Z,18.78
2018-07-20T04:17:55.054Z,18.79
2018-07-20T04:19:59.899Z,18.77
2018-07-20T04:22:04.230Z,18.76
2018-07-20T04:24:08.905Z,18.74
2018-07-20T04:26:13.637Z,18.70
2018-07-20T04:28:18.246Z,18.73
2018-07-20T04:30:23.012Z,18.76
2018-07-20T04:32:27.361Z,18.78
2018-07-20T04:34:32.076Z,18.76
2018-07-20T04:36:36.908Z,18.78
2018-07-20T04:38:41.628Z,18.70
2018-07-20T04:40:46.533Z,18.82
2018-07-20T04:42:51.189Z,18.82
2018-07-20T04:44:56.015Z,18.82
2018-07-20T04:47:00.647Z,18.86
2018-07-20T04:49:05.372Z,18.88
2018-07-20T04:51:10.082Z,18.90
2018-07-20T04:53:14.786Z,18.88
2018-07-20T04:55:19.538Z,18.99
2018-07-20T04:57:24.279Z,18.87
2018-07-20T04:59:28.950Z,18.81
2018-07-20T05:01:33.688Z,18.83
2018-07-20T05:04:08.847Z,18.81
2018-07-20T05:06:14.554Z,18.79
2018-07-20T05:08:19.222Z,18.79
2018-07-20T05:10:23.920Z,18.77
2018-07-20T05:12:28.599Z,18.77
2018-07-20T05:14:33.268Z,18.78
2018-07-20T05:16:38.032Z,18.78
2018-07-20T05:18:42.727Z,18.76
2018-07-20T05:20:47.356Z,18.78
2018-07-20T05:22:52.056Z,18.79
2018-07-20T05:24:56.711Z,18.84
2018-07-20T05:27:01.364Z,18.89
2018-07-20T05:29:06.123Z,18.92
2018-07-20T05:31:10.865Z,18.88
2018-07-20T05:33:16.092Z,18.99
2018-07-20T05:35:20.783Z,19.00
2018-07-20T05:37:25.411Z,19.03
2018-07-20T05:39:30.238Z,19.06
2018-07-20T05:41:35.049Z,19.09
2018-07-20T05:43:40.956Z,19.15
2018-07-20T05:45:45.942Z,19.24
2018-07-20T05:47:50.993Z,19.22
2018-07-20T05:49:55.883Z,19.23
2018-07-20T05:52:00.595Z,19.33
2018-07-20T05:54:05.263Z,19.32
2018-07-20T05:56:09.954Z,19.34
2018-07-20T05:58:14.594Z,19.43
2018-07-20T06:00:19.325Z,19.43
2018-07-20T06:02:23.941Z,19.49
2018-07-20T06:04:28.895Z,19.51
2018-07-20T06:06:33.742Z,19.52
2018-07-20T06:08:38.427Z,19.65
2018-07-20T06:10:43.224Z,19.65
2018-07-20T06:12:48.030Z,19.69
2018-07-20T06:14:52.865Z,19.76
2018-07-20T06:16:57.643Z,19.77
2018-07-20T06:19:02.749Z,19.75
2018-07-20T06:21:07.858Z,19.87
2018-07-20T06:23:12.526Z,20.04
2018-07-20T06:25:17.227Z,20.06
2018-07-20T06:27:21.905Z,20.07
2018-07-20T06:29:26.589Z,20.09
2018-07-20T06:31:31.642Z,20.22
2018-07-20T06:33:36.334Z,20.22
2018-07-20T06:35:41.025Z,20.23
2018-07-20T06:37:45.764Z,20.36
2018-07-20T06:39:50.420Z,20.43
2018-07-20T06:41:55.083Z,20.45
2018-07-20T06:43:59.904Z,20.48
2018-07-20T06:46:04.840Z,20.51
2018-07-20T06:48:09.649Z,20.58
2018-07-20T06:50:17.604Z,20.68
2018-07-20T06:52:22.538Z,20.64
2018-07-20T06:54:26.943Z,20.65
2018-07-20T06:56:31.693Z,20.67
2018-07-20T06:58:36.337Z,20.68
2018-07-20T07:00:40.797Z,20.76
2018-07-20T07:02:45.692Z,20.80
2018-07-20T07:04:50.478Z,20.83
2018-07-20T07:06:55.274Z,20.87
2018-07-20T07:09:00.108Z,20.89
2018-07-20T07:11:04.893Z,20.95
2018-07-20T07:13:09.621Z,21.00
2018-07-20T07:15:14.526Z,21.11
2018-07-20T07:17:19.222Z,21.15
2018-07-20T07:19:23.903Z,21.24
2018-07-20T07:21:28.614Z,21.28
2018-07-20T07:23:34.243Z,21.31
2018-07-20T07:25:38.936Z,21.29
2018-07-20T07:27:43.768Z,21.35
2018-07-20T07:29:48.443Z,21.44
2018-07-20T07:31:53.399Z,21.51
2018-07-20T07:33:58.126Z,21.75
2018-07-20T07:36:02.817Z,21.74
2018-07-20T07:40:15.955Z,21.72
2018-07-20T07:42:20.265Z,21.71
2018-07-20T07:44:24.917Z,21.87
2018-07-20T07:46:29.580Z,21.83
2018-07-20T07:48:34.191Z,21.92
2018-07-20T07:50:38.846Z,22.05
2018-07-20T07:52:43.577Z,22.21
2018-07-20T07:54:48.233Z,22.25
2018-07-20T07:56:52.884Z,22.33
2018-07-20T07:58:57.579Z,22.52
2018-07-20T08:01:02.312Z,22.59
2018-07-20T08:03:07.191Z,22.60
2018-07-20T08:05:11.973Z,22.59
2018-07-20T08:07:16.719Z,22.48
2018-07-20T08:09:21.425Z,22.64
2018-07-20T08:11:26.145Z,22.77
2018-07-20T08:13:30.859Z,22.75
2018-07-20T08:15:35.717Z,22.80
2018-07-20T08:17:40.504Z,22.94
2018-07-20T08:19:45.279Z,23.02
2018-07-20T08:21:49.924Z,23.08
2018-07-20T08:23:54.787Z,22.98
2018-07-20T08:25:59.653Z,23.17
2018-07-20T08:28:04.607Z,23.25
2018-07-20T08:30:09.435Z,23.32
2018-07-20T08:32:13.998Z,23.40
2018-07-20T08:34:19.093Z,23.55
2018-07-20T08:36:23.883Z,23.62
2018-07-20T08:38:28.798Z,23.70
2018-07-20T08:40:33.637Z,23.83
2018-07-20T08:42:38.397Z,23.83
2018-07-20T08:44:43.153Z,23.75
2018-07-20T08:46:47.870Z,23.65
2018-07-20T08:48:52.494Z,23.60
2018-07-20T08:50:57.233Z,23.79
2018-07-20T08:53:01.949Z,23.90
2018-07-20T08:55:06.657Z,23.88
2018-07-20T08:57:11.356Z,24.01
2018-07-20T08:59:16.086Z,24.08
2018-07-20T09:01:20.817Z,24.11
2018-07-20T09:03:25.607Z,24.22
2018-07-20T09:05:30.301Z,24.49
2018-07-20T09:07:35.083Z,24.60
2018-07-20T09:09:39.372Z,24.73
2018-07-20T09:11:44.253Z,24.79
2018-07-20T09:13:49.317Z,24.77
2018-07-20T09:15:53.892Z,24.71
2018-07-20T09:17:58.557Z,24.76
2018-07-20T09:20:03.367Z,24.85
2018-07-20T09:22:08.349Z,24.70
2018-07-20T09:24:12.742Z,24.76
2018-07-20T09:26:17.518Z,25.06
2018-07-20T09:28:22.372Z,25.09
2018-07-20T09:30:27.161Z,24.80
2018-07-20T09:32:32.196Z,24.79
2018-07-20T09:34:36.970Z,24.93
2018-07-20T09:36:41.737Z,24.94
2018-07-20T09:38:46.643Z,24.68
2018-07-20T09:40:51.309Z,25.07
2018-07-20T09:42:56.380Z,25.17
2018-07-20T09:45:00.975Z,25.53
2018-07-20T09:47:05.844Z,25.50
2018-07-20T09:49:10.523Z,25.66
2018-07-20T09:51:15.248Z,25.94
2018-07-20T09:53:19.892Z,25.84
2018-07-20T09:55:24.542Z,26.09
2018-07-20T09:57:29.236Z,26.25
2018-07-20T09:59:34.162Z,26.33
2018-07-20T10:01:38.747Z,26.38
2018-07-20T10:03:43.450Z,25.86
2018-07-20T10:05:48.421Z,25.95
2018-07-20T10:07:53.042Z,26.08
2018-07-20T10:09:57.740Z,26.35
2018-07-20T10:12:02.406Z,26.38
2018-07-20T10:14:07.385Z,26.10
2018-07-20T10:16:12.019Z,26.15
2018-07-20T10:18:17.031Z,26.09
2018-07-20T10:20:21.708Z,26.11
2018-07-20T10:22:26.405Z,26.31
2018-07-20T10:24:31.106Z,26.40
2018-07-20T10:26:35.896Z,26.07
2018-07-20T10:28:40.611Z,26.20
2018-07-20T10:30:45.349Z,26.23
2018-07-20T10:32:50.100Z,26.64
2018-07-20T10:34:54.764Z,26.59
2018-07-20T10:36:59.535Z,26.62
2018-07-20T10:39:06.472Z,26.20
2018-07-20T10:41:11.124Z,26.34
2018-07-20T10:43:15.824Z,26.50
2018-07-20T10:45:20.575Z,26.38
2018-07-20T10:47:25.486Z,26.25
2018-07-20T10:49:30.231Z,26.22
2018-07-20T10:51:35.501Z,26.43
2018-07-20T10:53:40.256Z,26.26
2018-07-20T10:55:44.975Z,26.55
2018-07-20T10:57:49.726Z,26.23
2018-07-20T10:59:54.465Z,26.07
2018-07-20T11:01:59.248Z,26.09
2018-07-20T11:04:04.198Z,26.36
2018-07-20T11:06:08.878Z,26.40
2018-07-20T11:08:13.580Z,26.43
2018-07-20T11:10:18.369Z,26.43
2018-07-20T11:12:23.108Z,26.52
2018-07-20T11:14:27.767Z,26.78
2018-07-20T11:16:32.397Z,26.44
2018-07-20T11:18:37.142Z,26.54
2018-07-20T11:20:41.766Z,26.37
2018-07-20T11:22:46.433Z,26.54
2018-07-20T11:24:51.649Z,26.80
2018-07-20T11:26:56.362Z,26.73
2018-07-20T11:29:01.085Z,26.87
2018-07-20T11:31:05.849Z,26.93
2018-07-20T11:33:10.678Z,26.99
2018-07-20T11:35:15.482Z,26.92
2018-07-20T11:37:20.175Z,26.88
2018-07-20T11:39:24.809Z,26.92
2018-07-20T11:41:29.430Z,26.75
2018-07-20T11:43:34.154Z,26.83
2018-07-20T11:45:38.459Z,26.95
2018-07-20T11:47:43.116Z,27.06
2018-07-20T11:49:47.819Z,26.93
2018-07-20T11:51:52.593Z,26.74
2018-07-20T11:53:57.487Z,27.08
2018-07-20T11:56:02.296Z,26.85
2018-07-20T11:58:06.974Z,26.91
2018-07-20T12:00:11.638Z,26.81
2018-07-20T12:02:16.428Z,26.88
2018-07-20T12:04:21.075Z,26.88
2018-07-20T12:06:25.705Z,26.94
2018-07-20T12:08:30.357Z,26.89
2018-07-20T12:10:35.008Z,27.00
2018-07-20T12:12:39.677Z,27.19
2018-07-20T12:14:44.403Z,27.34
2018-07-20T12:16:49.136Z,27.26
2018-07-20T12:18:53.949Z,27.30
2018-07-20T12:20:58.702Z,27.49
2018-07-20T12:23:03.537Z,27.66
2018-07-20T12:25:08.258Z,27.43
2018-07-20T12:27:13.017Z,27.54
2018-07-20T12:29:17.843Z,27.89
2018-07-20T12:31:22.497Z,27.60
2018-07-20T12:33:27.312Z,27.46
2018-07-20T12:35:32.052Z,27.61
2018-07-20T12:37:37.114Z,27.41
2018-07-20T12:39:41.792Z,27.30
2018-07-20T12:41:47.039Z,27.34
2018-07-20T12:43:51.734Z,27.30
2018-07-20T12:45:56.448Z,27.49
2018-07-20T12:48:01.509Z,27.27
2018-07-20T12:50:06.502Z,27.43
2018-07-20T12:52:11.158Z,27.79
2018-07-20T12:54:15.913Z,27.82
2018-07-20T12:56:20.686Z,27.53
2018-07-20T12:58:25.603Z,27.85
2018-07-20T13:00:30.326Z,28.09
2018-07-20T13:02:34.958Z,28.13
2018-07-20T13:04:39.629Z,28.51
2018-07-20T13:06:43.973Z,28.22
2018-07-20T13:08:48.706Z,28.04
2018-07-20T13:10:53.463Z,28.01
2018-07-20T13:12:58.254Z,28.16
2018-07-20T13:15:02.988Z,28.37
2018-07-20T13:17:07.789Z,28.44
2018-07-20T13:19:12.448Z,28.57
2018-07-20T13:21:17.259Z,28.49
2018-07-20T13:23:22.101Z,28.58
2018-07-20T13:25:26.885Z,28.38
2018-07-20T13:27:31.707Z,28.34
2018-07-20T13:29:36.449Z,28.36
2018-07-20T13:31:41.300Z,28.51
2018-07-20T13:33:46.116Z,28.34
2018-07-20T13:35:50.897Z,28.34
2018-07-20T13:37:55.598Z,28.36
2018-07-20T13:40:00.281Z,28.64
2018-07-20T13:42:05.061Z,28.60
2018-07-20T13:44:09.750Z,28.50
2018-07-20T13:46:14.467Z,28.56
2018-07-20T13:48:19.347Z,28.63
2018-07-20T13:50:24.095Z,28.29
2018-07-20T13:52:28.764Z,28.47
2018-07-20T13:54:33.591Z,28.93
2018-07-20T13:56:38.894Z,28.72
2018-07-20T13:58:43.780Z,28.46
2018-07-20T14:00:48.771Z,28.69
2018-07-20T14:02:53.623Z,29.11
2018-07-20T14:04:58.336Z,29.18
2018-07-20T14:07:03.006Z,28.96
2018-07-20T14:09:08.728Z,28.82
2018-07-20T14:11:13.436Z,28.82
2018-07-20T14:13:18.157Z,28.78
2018-07-20T14:15:23.057Z,28.67
2018-07-20T14:17:28.016Z,28.54
2018-07-20T14:19:35.255Z,28.06
2018-07-20T14:21:40.524Z,28.28
2018-07-20T14:23:45.271Z,28.45
2018-07-20T14:25:50.025Z,28.39
2018-07-20T14:27:54.774Z,28.42
2018-07-20T14:29:59.458Z,28.56
2018-07-20T14:32:04.529Z,28.17
2018-07-20T14:34:09.328Z,28.21
2018-07-20T14:36:14.084Z,28.14
2018-07-20T14:38:18.993Z,28.10
2018-07-20T14:40:23.788Z,28.34
2018-07-20T14:42:28.509Z,28.35
2018-07-20T14:44:33.268Z,28.46
2018-07-20T14:46:38.096Z,28.51
2018-07-20T14:50:42.905Z,28.58
2018-07-20T14:52:47.695Z,28.65
2018-07-20T14:54:52.633Z,28.74
2018-07-20T14:56:57.508Z,28.79
2018-07-20T14:59:02.406Z,28.92
2018-07-20T15:01:07.350Z,28.75
2018-07-20T15:03:12.260Z,28.78
2018-07-20T15:05:16.994Z,28.79
2018-07-20T15:07:21.711Z,29.01
2018-07-20T15:09:26.495Z,29.54
2018-07-20T15:11:31.282Z,29.53
2018-07-20T15:13:36.043Z,29.21
2018-07-20T15:15:40.918Z,29.60
2018-07-20T15:17:45.698Z,29.21
2018-07-20T15:19:50.463Z,29.15
2018-07-20T15:21:55.196Z,29.31
2018-07-20T15:23:59.891Z,29.48
2018-07-20T15:26:04.599Z,28.94
2018-07-20T15:28:09.458Z,29.30
2018-07-20T15:30:14.337Z,28.96
2018-07-20T15:32:19.156Z,28.97
2018-07-20T15:34:23.973Z,28.92
2018-07-20T15:36:28.696Z,28.97
2018-07-20T15:38:33.514Z,29.14
2018-07-20T15:40:38.266Z,29.14
2018-07-20T15:42:43.377Z,29.24
2018-07-20T15:44:48.332Z,29.34
2018-07-20T15:46:53.342Z,29.44
2018-07-20T15:48:57.859Z,29.58
2018-07-20T15:51:02.652Z,29.99
2018-07-20T15:53:37.360Z,29.70
2018-07-20T15:55:12.388Z,29.99
2018-07-20T15:57:17.142Z,29.64
2018-07-20T15:59:21.928Z,29.62
2018-07-20T16:01:26.649Z,29.77
2018-07-20T16:03:31.358Z,29.85
2018-07-20T16:05:36.072Z,29.80
2018-07-20T16:07:40.892Z,29.74
2018-07-20T16:09:45.617Z,29.90
2018-07-20T16:11:50.262Z,29.73
2018-07-20T16:13:54.959Z,29.81
2018-07-20T16:15:59.799Z,29.38
2018-07-20T16:18:04.836Z,29.01
2018-07-20T16:20:09.553Z,28.76
2018-07-20T16:22:14.265Z,28.81
2018-07-20T16:24:18.966Z,28.76
2018-07-20T16:26:23.704Z,28.82
2018-07-20T16:28:28.569Z,28.61
2018-07-20T16:30:33.439Z,28.95
2018-07-20T16:32:38.154Z,28.51
2018-07-20T16:34:43.036Z,28.63
2018-07-20T16:36:47.757Z,28.42
2018-07-20T16:38:52.534Z,28.52
2018-07-20T16:40:57.457Z,28.31
2018-07-20T16:43:02.486Z,28.15
2018-07-20T16:45:07.618Z,28.31
2018-07-20T16:47:12.583Z,28.34
2018-07-20T16:49:17.371Z,28.31
2018-07-20T16:51:22.064Z,28.70
2018-07-20T16:53:26.938Z,28.66
2018-07-20T16:55:31.802Z,28.45
2018-07-20T16:57:36.430Z,28.37
2018-07-20T16:59:40.741Z,28.41
2018-07-20T17:01:45.539Z,28.61
2018-07-20T17:03:50.378Z,28.71
2018-07-20T17:05:55.156Z,28.66
2018-07-20T17:07:59.911Z,28.85
2018-07-20T17:10:05.075Z,28.89
2018-07-20T17:12:09.998Z,29.00
2018-07-20T17:14:15.039Z,29.11
2018-07-20T17:16:19.894Z,29.26
2018-07-20T17:18:24.642Z,29.14
2018-07-20T17:20:29.387Z,29.29
2018-07-20T17:22:34.062Z,29.01
2018-07-20T17:24:39.436Z,29.11
2018-07-20T17:26:44.200Z,28.95
2018-07-20T17:28:49.360Z,28.63
2018-07-20T17:30:55.032Z,28.41
2018-07-20T17:32:59.914Z,28.22
2018-07-20T17:35:04.958Z,28.45
2018-07-20T17:37:10.780Z,28.36
2018-07-20T17:39:15.721Z,28.19
2018-07-20T17:41:20.463Z,28.01
2018-07-20T17:43:25.383Z,27.90
2018-07-20T17:45:30.108Z,27.66
2018-07-20T17:47:34.837Z,27.57
2018-07-20T17:49:39.602Z,27.06
2018-07-20T17:51:44.379Z,26.81
2018-07-20T17:53:49.093Z,26.74
2018-07-20T17:55:53.800Z,26.62
2018-07-20T17:57:58.672Z,26.81
2018-07-20T18:00:05.285Z,26.75
2018-07-20T18:02:13.988Z,26.75
2018-07-20T18:04:18.828Z,26.74
2018-07-20T18:06:23.549Z,26.95
2018-07-20T18:08:28.244Z,26.99
2018-07-20T18:10:33.192Z,26.79
2018-07-20T18:12:37.545Z,26.61
2018-07-20T18:14:42.298Z,26.61
2018-07-20T18:16:47.089Z,26.53
2018-07-20T18:18:51.828Z,26.56
2018-07-20T18:20:56.508Z,26.75
2018-07-20T18:23:01.253Z,26.59
2018-07-20T18:25:06.669Z,26.49
2018-07-20T18:27:11.722Z,26.43
2018-07-20T18:29:16.541Z,26.51
2018-07-20T18:31:21.632Z,26.37
2018-07-20T18:33:26.478Z,26.35
2018-07-20T18:35:31.428Z,26.24
2018-07-20T18:37:36.444Z,26.25
2018-07-20T18:39:41.382Z,26.15
2018-07-20T18:41:46.622Z,26.22
2018-07-20T18:43:51.380Z,26.10
2018-07-20T18:45:56.095Z,26.02
2018-07-20T18:48:00.960Z,26.14
2018-07-20T18:50:08.338Z,26.12
2018-07-20T18:52:13.391Z,25.92
2018-07-20T18:54:18.256Z,25.80
2018-07-20T18:56:23.061Z,25.78
2018-07-20T18:58:27.904Z,25.77
2018-07-20T19:00:32.597Z,25.76
2018-07-20T19:02:37.278Z,25.82
2018-07-20T19:06:59.413Z,25.69
2018-07-20T19:09:11.761Z,25.69
2018-07-20T19:11:25.156Z,25.56
2018-07-20T19:13:44.274Z,25.41
2018-07-20T19:15:50.384Z,25.44
2018-07-20T19:17:57.399Z,25.50
2018-07-20T19:20:02.169Z,25.37
2018-07-20T19:22:20.024Z,25.37
2018-07-20T19:24:34.948Z,25.22
2018-07-20T19:26:47.093Z,25.36
2018-07-20T19:28:51.864Z,25.32
2018-07-20T19:30:56.533Z,25.12
2018-07-20T19:33:02.423Z,24.96
2018-07-20T19:35:07.411Z,24.98
2018-07-20T19:37:12.309Z,25.05
2018-07-20T19:39:18.320Z,25.13
2018-07-20T19:41:23.124Z,24.86
2018-07-20T19:43:27.877Z,24.72
2018-07-20T19:45:32.786Z,24.94
2018-07-20T19:47:37.746Z,24.81
2018-07-20T19:49:42.670Z,24.70
2018-07-20T19:51:47.374Z,24.64
2018-07-20T19:53:52.149Z,24.79
2018-07-20T19:55:56.850Z,24.73
2018-07-20T19:58:01.565Z,24.63
2018-07-20T20:00:09.141Z,24.63
2018-07-20T20:02:13.753Z,24.57
2018-07-20T20:04:18.559Z,24.52
2018-07-20T20:06:23.416Z,24.38
2018-07-20T20:08:28.653Z,24.39
2018-07-20T20:10:33.581Z,24.34
2018-07-20T20:12:39.657Z,24.20
2018-07-20T20:14:44.585Z,24.31
2018-07-20T20:16:49.891Z,24.37
2018-07-20T20:18:56.660Z,24.43
2018-07-20T20:21:01.523Z,24.44
2018-07-20T20:23:06.712Z,24.55
2018-07-20T20:25:13.366Z,24.19
2018-07-20T20:27:21.405Z,24.30
2018-07-20T20:29:26.252Z,24.24
2018-07-20T20:31:30.942Z,24.31
2018-07-20T20:33:35.725Z,24.21
2018-07-20T20:35:40.644Z,24.01
2018-07-20T20:37:46.194Z,23.86
2018-07-20T20:39:51.013Z,24.29
2018-07-20T20:41:56.279Z,24.08
2018-07-20T20:44:01.325Z,24.20
2018-07-20T20:46:06.213Z,24.07
2018-07-20T20:48:10.934Z,24.32
2018-07-20T20:50:15.714Z,24.10
2018-07-20T20:52:21.429Z,24.09
2018-07-20T20:54:26.199Z,24.00
2018-07-20T20:56:30.897Z,23.88
2018-07-20T20:58:35.786Z,23.90
2018-07-20T21:00:40.689Z,24.03
2018-07-20T21:02:45.593Z,23.74
2018-07-20T21:04:50.399Z,23.81
2018-07-20T21:06:55.465Z,23.61
2018-07-20T21:09:00.218Z,23.70
2018-07-20T21:11:04.922Z,23.66
2018-07-20T21:13:09.864Z,23.77
2018-07-20T21:15:14.579Z,23.67
2018-07-20T21:17:19.453Z,23.65
2018-07-20T21:19:24.446Z,23.52
2018-07-20T21:21:29.306Z,23.52
2018-07-20T21:23:34.054Z,23.65
2018-07-20T21:25:38.756Z,23.77
2018-07-20T21:27:43.602Z,23.66
2018-07-20T21:29:48.292Z,23.87
2018-07-20T21:31:53.821Z,23.70
2018-07-20T21:33:58.479Z,23.64
2018-07-20T21:36:03.341Z,23.55
2018-07-20T21:38:08.875Z,23.48
2018-07-20T21:40:13.669Z,23.58
2018-07-20T21:42:18.404Z,23.55
2018-07-20T21:44:23.592Z,23.48
2018-07-20T21:46:28.411Z,23.39
2018-07-20T21:48:33.234Z,23.36
2018-07-20T21:50:38.078Z,23.40
2018-07-20T21:52:42.798Z,23.34
2018-07-20T21:54:47.438Z,23.34
2018-07-20T21:56:52.286Z,23.30
2018-07-20T21:58:57.058Z,23.44
2018-07-20T22:01:01.868Z,23.42
2018-07-20T22:03:06.639Z,23.39
2018-07-20T22:05:11.336Z,23.30
2018-07-20T22:07:16.037Z,23.17
2018-07-20T22:09:20.839Z,23.27
2018-07-20T22:11:25.482Z,23.27
2018-07-20T22:13:30.290Z,23.23
2018-07-20T22:15:35.185Z,23.30
2018-07-20T22:17:39.924Z,23.28
2018-07-20T22:19:44.580Z,23.32
2018-07-20T22:21:49.372Z,23.26
2018-07-20T22:23:54.032Z,23.26
2018-07-20T22:25:58.711Z,23.18
2018-07-20T22:28:03.497Z,23.13
2018-07-20T22:30:10.164Z,23.12
2018-07-20T22:32:14.805Z,23.07
2018-07-20T22:34:19.563Z,23.02
2018-07-20T22:36:24.382Z,23.18
2018-07-20T22:38:29.505Z,23.54
2018-07-20T22:40:34.245Z,23.47
2018-07-20T22:42:38.987Z,23.34
2018-07-20T22:44:43.701Z,23.25
2018-07-20T22:46:48.431Z,23.04
2018-07-20T22:48:53.063Z,23.12
2018-07-20T22:50:57.684Z,23.13
2018-07-20T22:53:02.424Z,23.19
2018-07-20T22:55:07.092Z,23.15
2018-07-20T22:57:11.985Z,23.07
2018-07-20T22:59:16.705Z,23.05
2018-07-20T23:01:21.438Z,23.15
2018-07-20T23:03:26.308Z,23.18
2018-07-20T23:05:31.064Z,23.11
2018-07-20T23:07:35.707Z,23.01
2018-07-20T23:09:40.401Z,23.03
2018-07-20T23:11:45.164Z,23.14
2018-07-20T23:13:49.765Z,23.15
2018-07-20T23:15:54.387Z,23.39
2018-07-20T23:17:59.178Z,23.22
2018-07-20T23:20:03.897Z,23.07
2018-07-20T23:22:08.534Z,23.29
2018-07-20T23:24:13.258Z,23.18
2018-07-20T23:26:17.961Z,23.15
2018-07-20T23:28:22.614Z,23.12
2018-07-20T23:30:27.426Z,23.01
2018-07-20T23:32:32.078Z,23.30
2018-07-20T23:34:36.832Z,23.56
2018-07-20T23:36:41.570Z,23.50
2018-07-20T23:38:46.618Z,23.30
2018-07-20T23:40:51.245Z,23.14
2018-07-20T23:42:55.910Z,23.09
2018-07-20T23:45:00.594Z,23.04
2018-07-20T23:47:05.377Z,23.06
2018-07-20T23:49:10.058Z,23.13
2018-07-20T23:51:14.673Z,23.09
2018-07-20T23:53:20.231Z,22.90
2018-07-20T23:55:24.942Z,22.89
2018-07-20T23:57:29.537Z,22.79
2018-07-20T23:59:34.301Z,22.67
